Time;durP1;ratioP1;P1;durP2;ratioP2;P2;SDS_P1;SDS_P2;PMS_P1;PMS_P2;Temp;Humidity;BMP_temperature;BMP_pressure;BME280_temperature;BME280_humidity;BME280_pressure;Samples;Min_cycle;Max_cycle;Signal;HPM_P1;HPM_P2
2022/01/14 12:45:51;;;;;;;;;;;24.70;43.20;;;;;;3819848;22;20613;-89
2022/01/14 12:47:24;;;;;;;;;;;24.80;43.80;;;;;;3815182;22;19927;-89
2022/01/14 12:48:56;;;;;;;;;;;24.90;43.70;;;;;;3817966;22;19987;-89
2022/01/14 12:50:30;;;;;;;;;;;24.90;43.70;;;;;;3819061;22;19925;-90
2022/01/14 12:52:09;;;;;;;;;;;24.90;43.70;;;;;;3815009;22;19927;-90
2022/01/14 12:53:48;;;;;;;;;;;25.00;43.90;;;;;;3813414;22;19969;-90
2022/01/14 12:55:20;;;;;;;;;;;25.00;43.90;;;;;;3797380;22;20237;-91
2022/01/14 12:56:53;;;;;;;;;;;25.10;44.00;;;;;;3797390;22;20298;-89
2022/01/14 12:58:25;;;;;;;;;;;25.10;44.10;;;;;;3801547;22;19912;-93
2022/01/14 12:59:57;;;;;;;;;;;25.10;44.20;;;;;;3799413;22;19925;-89
2022/01/14 13:01:31;;;;;;;;;;;25.20;44.20;;;;;;3796703;22;19921;-91
2022/01/14 13:03:03;;;;;;;;;;;25.30;45.20;;;;;;3796338;22;19921;-87
2022/01/14 13:04:34;;;;;;;;;;;25.40;45.40;;;;;;3797909;22;19928;-88
2022/01/14 13:06:06;;;;;;;;;;;25.40;44.70;;;;;;3798850;22;20240;-89
2022/01/14 13:07:38;;;;;;;;;;;25.40;45.00;;;;;;3797299;22;19964;-90
2022/01/14 13:09:10;;;;;;;;;;;25.50;45.10;;;;;;3798492;22;19921;-89
2022/01/14 13:10:44;;;;;;;;;;;25.50;44.90;;;;;;3798148;22;20059;-87
2022/01/14 13:12:32;;;;;;;;;;;25.60;46.00;;;;;;3798285;22;19975;-93
2022/01/14 13:14:19;;;;;;;;;;;25.50;45.10;;;;;;3797993;23;19976;-90
2022/01/14 13:15:54;;;;;;;;;;;25.50;45.10;;;;;;3796053;22;19927;-86
2022/01/14 13:17:28;;;;;;;;;;;25.50;44.90;;;;;;3797344;22;20362;-87
2022/01/14 13:18:59;;;;;;;;;;;25.60;45.40;;;;;;3797936;22;19925;-87
2022/01/14 13:20:34;;;;;;;;;;;25.70;45.10;;;;;;3797718;23;20000;-86
2022/01/14 13:22:08;;;;;;;;;;;25.80;46.00;;;;;;3797042;22;19966;-91
2022/01/14 13:23:40;;;;;;;;;;;25.80;45.60;;;;;;3797757;22;19924;-91
2022/01/14 13:25:12;;;;;;;;;;;25.80;45.20;;;;;;3798877;22;19925;-88
2022/01/14 13:26:44;;;;;;;;;;;25.80;45.40;;;;;;3798227;22;19921;-91
2022/01/14 13:28:24;;;;;;;;;;;25.80;45.60;;;;;;3797995;22;19921;-93
2022/01/14 13:29:56;;;;;;;;;;;25.80;45.60;;;;;;3799816;23;19921;-91
2022/01/14 13:31:28;;;;;;;;;;;25.80;45.70;;;;;;3797404;22;19921;-88
2022/01/14 13:33:01;;;;;;;;;;;25.80;45.80;;;;;;3797226;22;19947;-89
2022/01/14 13:34:33;;;;;;;;;;;25.80;46.30;;;;;;3797526;22;19927;-89
2022/01/14 13:36:05;;;;;;;;;;;25.90;46.10;;;;;;3797901;22;19975;-88
2022/01/14 13:37:37;;;;;;;;;;;25.90;46.40;;;;;;3797265;22;19940;-90
2022/01/14 13:39:09;;;;;;;;;;;26.00;46.20;;;;;;3798565;22;19925;-92
2022/01/14 13:40:43;;;;;;;;;;;26.00;46.60;;;;;;3798494;22;19970;-91
2022/01/14 13:42:22;;;;;;;;;;;26.00;46.50;;;;;;3799309;22;19921;-90
2022/01/14 13:44:00;;;;;;;;;;;26.10;46.70;;;;;;3797948;23;19975;-90
2022/01/14 13:45:31;;;;;;;;;;;26.10;46.80;;;;;;3797276;22;20450;-90
2022/01/14 13:47:11;;;;;;;;;;;26.10;43.40;;;;;;3787378;22;19945;-89
2022/01/14 13:48:45;;;;;;;;;;;26.00;41.90;;;;;;3796659;23;19924;-92
2022/01/14 13:50:17;;;;;;;;;;;26.00;42.50;;;;;;3799402;22;19947;-88
2022/01/14 13:52:00;;;;;;;;;;;25.90;42.60;;;;;;3795862;22;19921;-89
2022/01/14 13:53:33;;;;;;;;;;;25.80;42.90;;;;;;3798484;23;19929;-86
2022/01/14 13:55:05;;;;;;;;;;;25.80;43.30;;;;;;3797714;22;20119;-88
2022/01/14 13:56:40;;;;;;;;;;;25.80;43.50;;;;;;3797587;22;19928;-91
2022/01/14 13:58:13;;;;;;;;;;;25.80;43.50;;;;;;3796311;22;20025;-84
2022/01/14 13:59:46;;;;;;;;;;;25.70;43.30;;;;;;3797272;22;19921;-88
2022/01/14 14:01:28;;;;;;;;;;;25.80;43.30;;;;;;3796532;22;20020;-87
2022/01/14 14:03:00;;;;;;;;;;;25.70;43.20;;;;;;3797558;22;19944;-87
2022/01/14 14:04:38;;;;;;;;;;;25.60;43.50;;;;;;3797442;23;19968;-88
2022/01/14 14:06:14;;;;;;;;;;;25.60;43.90;;;;;;3797633;23;20263;-89
2022/01/14 14:07:48;;;;;;;;;;;25.60;43.90;;;;;;3797921;22;19937;-88
2022/01/14 14:09:25;;;;;;;;;;;25.60;44.10;;;;;;3797080;22;20336;-87
2022/01/14 14:13:08;;;;;;;;;;;25.50;44.00;;;;;;3793002;22;19917;-91
2022/01/14 14:23:21;;;;;;;;;;;25.40;44.60;;;;;;3759587;22;20236;-91
2022/01/14 14:25:35;;;;;;;;;;;;;;;;;;;;;
2022/01/14 14:27:14;;;;;;;;;;;25.30;44.80;;;;;;3796761;22;19921;-94
2022/01/14 14:28:48;;;;;;;;;;;25.30;44.90;;;;;;3798511;22;19996;-91
2022/01/14 14:30:21;;;;;;;;;;;25.30;45.20;;;;;;3793558;22;19971;-91
2022/01/14 14:31:56;;;;;;;;;;;25.30;45.10;;;;;;3797551;22;19924;-91
2022/01/14 14:33:28;;;;;;;;;;;25.20;45.60;;;;;;3799336;23;19920;-90
2022/01/14 14:35:01;;;;;;;;;;;25.20;45.20;;;;;;3797224;22;19970;-92
2022/01/14 14:36:35;;;;;;;;;;;25.20;45.30;;;;;;3799076;22;20348;-91
2022/01/14 14:38:11;;;;;;;;;;;25.10;45.30;;;;;;3794018;22;19921;-91
2022/01/14 14:39:43;;;;;;;;;;;25.10;45.60;;;;;;3798256;23;19932;-91
2022/01/14 14:41:17;;;;;;;;;;;25.10;45.40;;;;;;3799366;22;20165;-92
2022/01/14 14:42:50;;;;;;;;;;;25.10;45.30;;;;;;3787964;22;19921;-92
2022/01/14 14:44:22;;;;;;;;;;;25.10;45.50;;;;;;3798778;22;19921;-92
2022/01/14 14:46:04;;;;;;;;;;;25.10;45.50;;;;;;3796310;22;19995;-92
2022/01/14 14:47:37;;;;;;;;;;;25.00;45.50;;;;;;3807801;22;20000;-95
2022/01/14 14:49:46;;;;;;;;;;;25.00;45.80;;;;;;3812402;22;19909;-93
2022/01/14 14:51:19;;;;;;;;;;;25.00;45.70;;;;;;3810394;22;19921;-91
2022/01/14 14:52:51;;;;;;;;;;;25.00;45.80;;;;;;3814032;22;19921;-92
2022/01/14 14:54:25;;;;;;;;;;;24.90;45.70;;;;;;3809481;22;19925;-93
2022/01/14 14:55:57;;;;;;;;;;;24.90;45.80;;;;;;3808142;22;19921;-93
2022/01/14 14:57:31;;;;;;;;;;;24.90;46.00;;;;;;3802421;22;19921;-91
2022/01/14 14:59:03;;;;;;;;;;;24.90;46.00;;;;;;3803663;22;19929;-90
2022/01/14 15:00:34;;;;;;;;;;;24.90;46.00;;;;;;3795609;22;19953;-89
2022/01/14 15:02:19;;;;;;;;;;;24.90;46.20;;;;;;3802658;22;19921;-94
2022/01/14 15:03:51;;;;;;;;;;;24.90;46.60;;;;;;3798301;23;20007;-91
2022/01/14 15:05:23;;;;;;;;;;;25.00;46.30;;;;;;3806711;22;19939;-89
2022/01/14 15:06:55;;;;;;;;;;;25.10;46.40;;;;;;3797474;22;19940;-90
2022/01/14 15:08:26;;;;;;;;;;;25.10;46.10;;;;;;3796959;23;19972;-89
2022/01/14 15:09:59;;;;;;;;;;;25.10;46.10;;;;;;3796971;22;19921;-90
2022/01/14 15:11:41;;;;;;;;;;;25.00;46.00;;;;;;3798311;22;19999;-89
2022/01/14 15:13:13;;;;;;;;;;;25.00;46.10;;;;;;3797042;22;19921;-91
2022/01/14 15:14:47;;;;;;;;;;;25.10;46.30;;;;;;3797761;22;20295;-92
2022/01/14 15:16:48;;;;;;;;;;;25.10;46.10;;;;;;3781773;22;19927;-92
2022/01/14 15:18:18;;;;;;;;;;;25.10;46.10;;;;;;3796858;22;19921;-92
2022/01/14 15:19:51;;;;;;;;;;;25.10;46.00;;;;;;3801720;22;20358;-91
2022/01/14 15:21:23;;;;;;;;;;;25.10;45.80;;;;;;3798439;22;19925;-92
2022/01/14 15:22:55;;;;;;;;;;;25.00;46.00;;;;;;3796323;22;19921;-91
2022/01/14 15:24:27;;;;;;;;;;;25.00;46.30;;;;;;3798360;22;19921;-93
2022/01/14 15:26:00;;;;;;;;;;;25.00;46.10;;;;;;3802026;22;19996;-90
2022/01/14 15:27:32;;;;;;;;;;;25.00;46.20;;;;;;3799599;22;19921;-92
2022/01/14 15:29:03;;;;;;;;;;;25.00;46.10;;;;;;3797841;22;19995;-91
2022/01/14 15:30:36;;;;;;;;;;;25.00;46.00;;;;;;3796960;22;19955;-91
2022/01/14 15:32:08;;;;;;;;;;;25.10;46.10;;;;;;3799363;22;19928;-89
2022/01/14 15:33:40;;;;;;;;;;;25.10;45.70;;;;;;3797600;23;19921;-89
2022/01/14 15:35:12;;;;;;;;;;;25.00;45.70;;;;;;3799202;23;19921;-90
2022/01/14 15:36:50;;;;;;;;;;;24.90;45.80;;;;;;3799197;22;19928;-91
2022/01/14 15:38:21;;;;;;;;;;;25.00;46.10;;;;;;3798605;23;19921;-89
2022/01/14 15:39:53;;;;;;;;;;;24.90;46.10;;;;;;3799054;22;19974;-92
2022/01/14 15:41:28;;;;;;;;;;;24.90;46.60;;;;;;3799395;22;19929;-90
2022/01/14 15:42:59;;;;;;;;;;;24.90;46.50;;;;;;3799065;22;20438;-91
2022/01/14 15:44:31;;;;;;;;;;;24.90;46.20;;;;;;3799312;22;19921;-92
2022/01/14 15:46:04;;;;;;;;;;;24.90;46.30;;;;;;3798024;22;19921;-91
2022/01/14 15:47:36;;;;;;;;;;;24.90;46.20;;;;;;3798114;22;19925;-90
2022/01/14 15:49:09;;;;;;;;;;;25.00;46.30;;;;;;3797789;22;19921;-93
2022/01/14 15:50:43;;;;;;;;;;;24.90;46.10;;;;;;3799606;22;19974;-90
2022/01/14 15:52:15;;;;;;;;;;;24.80;46.40;;;;;;3797669;22;19972;-91
2022/01/14 15:53:50;;;;;;;;;;;24.80;46.60;;;;;;3798098;22;19983;-91
2022/01/14 15:55:22;;;;;;;;;;;24.70;46.30;;;;;;3799381;22;19921;-92
2022/01/14 15:56:56;;;;;;;;;;;24.70;46.50;;;;;;3797766;22;19952;-91
2022/01/14 15:58:35;;;;;;;;;;;24.70;46.50;;;;;;3799200;22;19924;-91
2022/01/14 16:00:08;;;;;;;;;;;24.60;46.60;;;;;;3796109;22;19921;-91
2022/01/14 16:01:47;;;;;;;;;;;24.60;46.80;;;;;;3798436;22;19928;-92
2022/01/14 16:03:19;;;;;;;;;;;24.60;46.80;;;;;;3798840;22;19968;-92
2022/01/14 16:04:51;;;;;;;;;;;24.60;46.80;;;;;;3797974;22;19940;-91
2022/01/14 16:06:26;;;;;;;;;;;24.50;46.80;;;;;;3799100;22;19921;-91
2022/01/14 16:07:58;;;;;;;;;;;24.50;46.70;;;;;;3798722;22;19905;-92
2022/01/14 16:09:30;;;;;;;;;;;24.50;46.90;;;;;;3799133;22;20008;-92
2022/01/14 16:11:02;;;;;;;;;;;24.50;47.00;;;;;;3800410;22;19928;-92
2022/01/14 16:12:38;;;;;;;;;;;24.40;47.00;;;;;;3796036;22;19986;-92
2022/01/14 16:14:20;;;;;;;;;;;24.40;46.90;;;;;;3799213;23;19988;-92
2022/01/14 16:15:52;;;;;;;;;;;24.40;46.80;;;;;;3797718;22;20335;-92
2022/01/14 16:17:24;;;;;;;;;;;24.40;46.90;;;;;;3797524;22;20346;-91
2022/01/14 16:18:56;;;;;;;;;;;24.40;47.00;;;;;;3799178;22;19920;-92
2022/01/14 16:20:28;;;;;;;;;;;24.40;46.90;;;;;;3797760;22;19937;-92
2022/01/14 16:21:59;;;;;;;;;;;24.30;47.50;;;;;;3798750;22;19941;-91
2022/01/14 16:23:31;;;;;;;;;;;24.30;47.00;;;;;;3798596;22;19970;-90
2022/01/14 16:25:03;;;;;;;;;;;24.30;46.90;;;;;;3798428;22;19962;-93
2022/01/14 16:26:35;;;;;;;;;;;24.30;47.00;;;;;;3798803;22;19925;-92
2022/01/14 16:28:11;;;;;;;;;;;24.30;47.00;;;;;;3797069;22;19947;-93
2022/01/14 16:29:45;;;;;;;;;;;24.30;47.00;;;;;;3798383;23;19928;-93
2022/01/14 16:31:17;;;;;;;;;;;24.30;47.00;;;;;;3797872;22;19928;-91
2022/01/14 16:32:49;;;;;;;;;;;24.30;47.00;;;;;;3797061;22;19996;-92
2022/01/14 16:34:21;;;;;;;;;;;24.20;47.00;;;;;;3798741;22;19988;-92
2022/01/14 16:35:53;;;;;;;;;;;24.20;47.00;;;;;;3797684;22;19924;-92
2022/01/14 16:37:26;;;;;;;;;;;24.20;47.10;;;;;;3797752;22;19952;-92
2022/01/14 16:38:58;;;;;;;;;;;24.10;47.10;;;;;;3798587;22;19925;-92
2022/01/14 16:40:30;;;;;;;;;;;24.10;47.10;;;;;;3797645;22;19995;-92
2022/01/14 16:42:03;;;;;;;;;;;24.10;47.10;;;;;;3798414;22;20319;-92
2022/01/14 16:43:36;;;;;;;;;;;24.10;47.10;;;;;;3797847;22;19947;-92
2022/01/14 16:45:08;;;;;;;;;;;24.10;47.00;;;;;;3797505;22;19996;-92
2022/01/14 16:46:40;;;;;;;;;;;24.10;47.20;;;;;;3798162;23;20412;-92
2022/01/14 16:48:14;;;;;;;;;;;24.10;47.10;;;;;;3797438;22;19973;-91
2022/01/14 16:49:45;;;;;;;;;;;24.10;47.20;;;;;;3798254;22;19921;-92
2022/01/14 16:51:17;;;;;;;;;;;24.00;47.20;;;;;;3798136;22;20370;-91
2022/01/14 16:52:49;;;;;;;;;;;24.00;47.10;;;;;;3796879;22;19921;-92
2022/01/14 16:54:20;;;;;;;;;;;24.00;47.10;;;;;;3797738;22;19921;-92
2022/01/14 16:55:52;;;;;;;;;;;24.00;47.20;;;;;;3798122;22;19944;-92
2022/01/14 16:57:24;;;;;;;;;;;24.00;47.30;;;;;;3794759;22;19921;-91
2022/01/14 16:58:57;;;;;;;;;;;24.00;47.10;;;;;;3797692;22;20305;-92
2022/01/14 17:00:29;;;;;;;;;;;24.00;47.20;;;;;;3796960;22;19955;-92
2022/01/14 17:02:01;;;;;;;;;;;23.90;48.00;;;;;;3797146;22;20316;-91
2022/01/14 17:03:32;;;;;;;;;;;23.90;47.20;;;;;;3797841;22;20348;-91
2022/01/14 17:05:04;;;;;;;;;;;23.90;47.40;;;;;;3797622;22;19947;-91
2022/01/14 17:06:36;;;;;;;;;;;23.90;47.20;;;;;;3798081;23;19928;-92
2022/01/14 17:08:09;;;;;;;;;;;23.90;47.30;;;;;;3797740;22;19927;-91
2022/01/14 17:09:41;;;;;;;;;;;23.90;47.30;;;;;;3797483;22;20335;-91
2022/01/14 17:11:13;;;;;;;;;;;23.80;47.40;;;;;;3797852;22;20233;-93
2022/01/14 17:12:45;;;;;;;;;;;23.80;47.30;;;;;;3797063;22;19996;-92
2022/01/14 17:14:18;;;;;;;;;;;23.80;47.30;;;;;;3797619;22;19921;-92
2022/01/14 17:15:50;;;;;;;;;;;23.80;47.50;;;;;;3796439;22;19974;-91
2022/01/14 17:17:21;;;;;;;;;;;23.80;47.50;;;;;;3796731;22;19984;-92
2022/01/14 17:18:53;;;;;;;;;;;23.80;47.50;;;;;;3797607;23;20387;-92
2022/01/14 17:20:25;;;;;;;;;;;23.80;47.40;;;;;;3798009;23;20312;-92
2022/01/14 17:21:56;;;;;;;;;;;23.70;47.40;;;;;;3797563;22;20040;-92
2022/01/14 17:23:28;;;;;;;;;;;23.70;47.50;;;;;;3797637;22;19966;-92
2022/01/14 17:25:02;;;;;;;;;;;23.70;47.50;;;;;;3798076;22;20340;-94
2022/01/14 17:26:34;;;;;;;;;;;23.70;47.50;;;;;;3798102;22;19921;-93
2022/01/14 17:28:06;;;;;;;;;;;23.70;47.60;;;;;;3797556;22;19929;-93
2022/01/14 17:29:48;;;;;;;;;;;23.70;47.50;;;;;;3799863;22;19925;-92
2022/01/14 17:31:20;;;;;;;;;;;23.70;47.60;;;;;;3799703;22;19921;-92
2022/01/14 17:32:52;;;;;;;;;;;23.60;47.60;;;;;;3795575;22;19941;-92
2022/01/14 17:34:24;;;;;;;;;;;23.60;47.60;;;;;;3797711;22;19921;-93
2022/01/14 17:35:56;;;;;;;;;;;23.60;47.60;;;;;;3798619;22;19936;-93
2022/01/14 17:37:28;;;;;;;;;;;23.60;47.70;;;;;;3797018;22;19944;-93
2022/01/14 17:39:02;;;;;;;;;;;23.60;47.70;;;;;;3801083;22;19921;-92
2022/01/14 17:40:33;;;;;;;;;;;23.60;47.70;;;;;;3799384;22;19964;-93
